Shelton, WA

5:58 PM PDT on October 21, 2014 (GMT -0700)
Miller Point, Shorecrest | Change Station
CLOSE
Current Station
Personal Weather Station
Location: Shelton, WA
Elevation: 20 ft
Nearby Weather Stations
Active Advisory: Areal Flood Watch

Elev 20 ft 47.21 °N, 123.06 °W | Updated 7 minutes ago

Overcast
Overcast
59.2 °F
Feels Like 59.2 °F
N
2.7
Wind Variable Wind from NE

Today
High -- | Low -- °F
--% Chance of Precip.
Yesterday
High -- | Low -- °F
Precip. -- in
7:39 AM 6:13 PM
Waning Crescent, 4% visible
Pressure 29.84 in
Visibility 10.0 miles
Clouds Mostly Cloudy 3400 ft
Overcast 4800 ft
Dew Point 54 °F
Humidity 83%
Rainfall 0.18 in
Snow Depth Not available.
UV 0 out of 12
Pollen .40 out of 12
PM2.5 Good
Flu Activity Sporadic
METAR KSHN 220053Z AUTO 15009KT 10SM BKN034 OVC048 14/11 A2984 RMK AO2 SLP105 T01390106 TSNO

More Conditions Fewer Conditions

Pressure 29.84 in
Visibility 10.0 miles
Clouds Mostly Cloudy 3400 ft
Overcast 4800 ft
Dew Point 54 °F
Humidity 83%
Rainfall 0.18 in
Snow Depth Not available.
UV 0 out of 12
Pollen .40 out of 12
PM2.5 Good
Flu Activity Sporadic
METAR KSHN 220053Z AUTO 15009KT 10SM BKN034 OVC048 14/11 A2984 RMK AO2 SLP105 T01390106 TSNO

More Conditions Fewer Conditions

10-Day Weather Forecast

Almanac

Astronomy

Oct. 21, 2014 Rise Set
Actual Time 7:39 AM PDT 6:13 PM PDT
Civil Twilight 7:08 AM PDT 6:44 PM PDT
Nautical Twilight 6:32 AM PDT 7:20 PM PDT
Astronomical Twilight 5:57 AM PDT 7:55 PM PDT
Moon 5:20 AM PDT (10/21) 5:17 PM PDT (10/21)
Length of Visible Light 11h 36m
Length of Day
10h 34m
Tomorrow will be 3m 12s shorter.
Waning Crescent, 4% of the Moon is Illuminated
Today
Waning Crescent
Oct 23
New
Oct 30
First Quarter
Nov 6
Full
Nov 14
Last Quarter

Today's Extremes

State Highs State Lows

Community

WunderPhotos

Upload Photos

1,763,837 photos uploaded!

Nearby

Air Quality

  Air Quality AQ Index Pollutant
Yesterday Good
PM2.5
Current Good
PM2.5

Snow Depth

Station Depth Elevation
Dungeness 0 in 4100 ft
Mount Gardner 0 in 3000 ft
Alpine Meadows 0 in 3500 ft
Meadows Pass 0 in 3500 ft
Skookum Creek 0 in 3920 ft

Earthquake Activity

City Distance Mag. Time & Date
No recent earthquake activity has been reported nearby.
Minimum magnitude displayed is 2.5.

Coastal Water Temperatures

Place Temperature
Port Townsend, WA 53.1 °F
Seattle, WA 55.0 °F
Friday Harbor, WA 51.1 °F
Tacoma, WA 54.0 °F

Nearby Weather Stations